Time;durP1;ratioP1;P1;durP2;ratioP2;P2;SDS_P1;SDS_P2;PMS_P1;PMS_P2;Temp;Humidity;BMP_temperature;BMP_pressure;BME280_temperature;BME280_humidity;BME280_pressure;Samples;Min_cycle;Max_cycle;Signal;HPM_P1;HPM_P2
2023/04/24 00:00:05;;;;;;;17.20;10.57;;;;;;;9.28;100.00;99935.53;4997699;28;20683;-67
2023/04/24 00:02:32;;;;;;;19.63;11.73;;;;;;;9.28;100.00;99942.47;4978842;28;20060;-67
2023/04/24 00:05:02;;;;;;;20.30;11.90;;;;;;;9.27;100.00;99940.72;4998016;28;20026;-67
2023/04/24 00:07:27;;;;;;;23.95;11.77;;;;;;;9.28;100.00;99937.28;4997287;28;20041;-68
2023/04/24 00:09:52;;;;;;;19.65;11.70;;;;;;;9.26;100.00;99932.06;4979019;28;20049;-68
2023/04/24 00:12:17;;;;;;;24.08;12.68;;;;;;;9.23;100.00;99935.50;4996537;28;20061;-67
2023/04/24 00:14:43;;;;;;;20.90;12.10;;;;;;;9.25;100.00;99947.66;4997021;28;20040;-67
2023/04/24 00:17:08;;;;;;;21.63;12.07;;;;;;;9.25;100.00;99945.03;4997310;28;20547;-67
2023/04/24 00:19:33;;;;;;;21.52;12.88;;;;;;;9.25;100.00;99942.44;4997464;28;20025;-67
2023/04/24 00:21:59;;;;;;;24.00;12.48;;;;;;;9.23;100.00;99945.03;4997457;28;20512;-67
2023/04/24 00:24:24;;;;;;;24.08;13.68;;;;;;;9.20;100.00;99945.84;4978912;28;20032;-67
2023/04/24 00:26:50;;;;;;;26.63;14.20;;;;;;;9.20;100.00;99940.66;4997237;28;20022;-67
2023/04/24 00:29:15;;;;;;;26.98;14.98;;;;;;;9.16;100.00;99949.25;4996324;28;20516;-67
2023/04/24 00:31:40;;;;;;;26.05;14.20;;;;;;;9.15;100.00;99949.22;4997485;28;20030;-67
2023/04/24 00:34:06;;;;;;;25.67;13.85;;;;;;;9.14;100.00;99947.47;4997028;28;20018;-67
2023/04/24 00:36:32;;;;;;;27.02;14.32;;;;;;;9.13;100.00;99953.53;4997087;28;20393;-67
2023/04/24 00:38:57;;;;;;;26.77;14.60;;;;;;;9.08;100.00;99956.06;4995996;28;20032;-67
2023/04/24 00:41:24;;;;;;;27.63;14.70;;;;;;;9.05;100.00;99956.91;4996825;28;20041;-67
2023/04/24 00:43:51;;;;;;;26.58;15.05;;;;;;;9.06;100.00;99965.56;4997357;28;20632;-67
2023/04/24 00:46:16;;;;;;;30.08;15.32;;;;;;;9.04;100.00;99962.06;4996778;28;20033;-67
2023/04/24 00:48:43;;;;;;;29.27;14.75;;;;;;;9.04;100.00;99959.47;4996700;28;20112;-67
2023/04/24 00:51:08;;;;;;;29.65;15.00;;;;;;;9.02;100.00;99963.75;4996831;28;20038;-67
2023/04/24 00:53:33;;;;;;;28.63;14.85;;;;;;;9.03;100.00;99962.91;4996493;28;20038;-67
2023/04/24 00:56:00;;;;;;;30.23;15.57;;;;;;;9.01;100.00;99962.03;4997039;28;20041;-67
2023/04/24 00:58:26;;;;;;;31.42;15.77;;;;;;;8.97;100.00;99962.81;4997111;28;20696;-67
2023/04/24 01:00:52;;;;;;;30.08;15.88;;;;;;;8.97;100.00;99962.81;4996564;28;20029;-67
2023/04/24 01:03:20;;;;;;;32.47;16.60;;;;;;;8.97;100.00;99962.81;4995850;28;20049;-67
2023/04/24 01:05:46;;;;;;;31.08;16.15;;;;;;;8.97;100.00;99958.50;4978157;28;20452;-67
2023/04/24 01:08:11;;;;;;;28.67;16.15;;;;;;;8.99;100.00;99963.72;4996396;28;20033;-67
2023/04/24 01:10:40;;;;;;;33.55;17.20;;;;;;;8.97;100.00;99953.28;4995721;28;20128;-67
2023/04/24 01:13:05;;;;;;;35.47;17.43;;;;;;;8.96;100.00;99958.47;4996252;28;20034;-67
2023/04/24 01:15:30;;;;;;;35.30;16.67;;;;;;;8.96;100.00;99961.06;4995895;28;20018;-67
2023/04/24 01:17:56;;;;;;;32.40;16.15;;;;;;;8.93;100.00;99955.81;4996480;28;20501;-66
2023/04/24 01:20:22;;;;;;;33.67;16.17;;;;;;;8.90;100.00;99960.97;4978407;28;20065;-67
2023/04/24 01:22:48;;;;;;;32.72;15.85;;;;;;;8.84;100.00;99954.81;4996613;28;20030;-67
2023/04/24 01:25:13;;;;;;;30.15;16.55;;;;;;;8.82;100.00;99955.63;4996805;28;20037;-67
2023/04/24 01:27:38;;;;;;;36.13;16.27;;;;;;;8.81;100.00;99952.19;4996228;28;20038;-67
2023/04/24 01:30:06;;;;;;;32.92;16.98;;;;;;;8.78;100.00;99962.53;4995719;28;20418;-67
2023/04/24 01:32:31;;;;;;;32.35;17.60;;;;;;;8.75;100.00;99957.28;4978162;28;20030;-67
2023/04/24 01:34:56;;;;;;;30.25;16.83;;;;;;;8.72;100.00;99962.44;4996579;28;20024;-67
2023/04/24 01:37:22;;;;;;;34.30;18.02;;;;;;;8.73;100.00;99964.16;4996541;28;20477;-67
2023/04/24 01:39:47;;;;;;;37.30;19.02;;;;;;;8.69;100.00;99963.25;4996083;28;20026;-67
2023/04/24 01:42:14;;;;;;;35.22;18.33;;;;;;;8.67;100.00;99970.13;4996046;28;20030;-67
2023/04/24 01:44:40;;;;;;;36.60;18.40;;;;;;;8.68;100.00;99961.47;4977277;28;20462;-67
2023/04/24 01:47:05;;;;;;;41.00;20.00;;;;;;;8.65;100.00;99958.84;4996529;28;20482;-67
2023/04/24 01:49:31;;;;;;;40.38;20.25;;;;;;;8.66;100.00;99957.09;4995697;28;20401;-67
2023/04/24 01:51:56;;;;;;;39.13;20.00;;;;;;;8.64;100.00;99959.69;4996100;28;20033;-68
2023/04/24 01:54:22;;;;;;;39.47;20.15;;;;;;;8.65;100.00;99964.03;4996190;28;20030;-67
2023/04/24 01:56:47;;;;;;;39.55;20.08;;;;;;;8.65;100.00;99960.56;4995859;28;20448;-67
2023/04/24 01:59:12;;;;;;;41.42;20.83;;;;;;;8.65;100.00;99964.03;4995899;28;20033;-67
2023/04/24 02:01:38;;;;;;;43.58;20.55;;;;;;;8.66;100.00;99970.09;4995976;28;20048;-68
2023/04/24 02:04:05;;;;;;;40.88;21.02;;;;;;;8.65;100.00;99965.78;4996158;28;20060;-67
2023/04/24 02:06:31;;;;;;;42.15;21.05;;;;;;;8.63;100.00;99970.94;4995356;28;20037;-67
2023/04/24 02:09:00;;;;;;;43.60;21.10;;;;;;;8.64;100.00;99971.81;4977503;28;20038;-67
2023/04/24 02:11:26;;;;;;;41.08;21.88;;;;;;;8.63;100.00;99977.84;4995224;28;20596;-67
2023/04/24 02:13:52;;;;;;;42.10;20.85;;;;;;;8.61;100.00;99966.56;4995926;28;20081;-67
2023/04/24 02:16:17;;;;;;;38.83;20.38;;;;;;;8.59;100.00;99969.13;4995731;28;20079;-67
2023/04/24 02:18:43;;;;;;;36.78;19.67;;;;;;;8.59;100.00;99983.81;4977812;28;20429;-67
2023/04/24 02:21:09;;;;;;;37.58;21.17;;;;;;;8.56;100.00;99981.16;4995652;28;20141;-67
2023/04/24 02:23:35;;;;;;;38.47;20.83;;;;;;;8.53;100.00;99974.22;4999738;28;20026;-67
2023/04/24 02:26:00;;;;;;;37.20;18.90;;;;;;;8.52;100.00;99975.06;4999185;28;20042;-67
2023/04/24 02:28:25;;;;;;;37.70;19.48;;;;;;;8.51;100.00;99975.91;4999590;28;20038;-67
2023/04/24 02:30:51;;;;;;;38.83;19.20;;;;;;;8.53;100.00;99972.50;4980386;28;20040;-67
2023/04/24 02:33:16;;;;;;;37.75;20.27;;;;;;;8.52;100.00;99978.53;4999194;28;20112;-67
2023/04/24 02:35:41;;;;;;;32.17;18.45;;;;;;;8.50;100.00;99972.44;4999514;28;20029;-67
2023/04/24 02:38:07;;;;;;;39.30;19.08;;;;;;;8.46;100.00;99970.63;4999549;28;20096;-67
2023/04/24 02:40:32;;;;;;;39.10;19.52;;;;;;;8.45;100.00;99968.00;4999383;28;20417;-67
2023/04/24 02:42:57;;;;;;;38.00;19.52;;;;;;;8.41;100.00;99964.44;4998922;28;20489;-67
2023/04/24 02:45:23;;;;;;;38.38;19.48;;;;;;;8.41;100.00;99969.63;4999073;28;20038;-67
2023/04/24 02:47:48;;;;;;;39.03;19.25;;;;;;;8.41;100.00;99971.34;4999518;28;20101;-67
2023/04/24 02:50:13;;;;;;;41.97;19.88;;;;;;;8.40;100.00;99960.13;4999525;28;20030;-67
2023/04/24 02:52:38;;;;;;;37.17;18.90;;;;;;;8.39;100.00;99955.75;4998267;28;20026;-67
2023/04/24 02:55:04;;;;;;;36.90;18.90;;;;;;;8.39;100.00;99958.34;4999063;28;20057;-67
2023/04/24 02:57:30;;;;;;;38.55;19.55;;;;;;;8.39;100.00;99953.16;4998992;28;20018;-67
2023/04/24 02:59:55;;;;;;;39.00;19.75;;;;;;;8.40;100.00;99957.50;4999111;28;20034;-67
2023/04/24 03:02:21;;;;;;;37.47;19.55;;;;;;;8.38;100.00;99951.41;4998078;28;20706;-67
2023/04/24 03:04:47;;;;;;;36.40;18.70;;;;;;;8.40;100.00;99954.91;4998124;28;20058;-67
2023/04/24 03:07:14;;;;;;;37.17;19.45;;;;;;;8.38;100.00;99951.41;4998236;28;20087;-67
2023/04/24 03:09:40;;;;;;;37.95;18.77;;;;;;;8.40;100.00;99951.44;4998702;28;20050;-67
2023/04/24 03:12:05;;;;;;;36.88;18.75;;;;;;;8.40;100.00;99960.13;4998727;28;20035;-67
2023/04/24 03:14:31;;;;;;;38.67;19.67;;;;;;;8.41;100.00;99960.97;4980863;28;20026;-67
2023/04/24 03:16:56;;;;;;;39.35;19.48;;;;;;;8.41;100.00;99959.25;4998660;28;20022;-67
2023/04/24 03:19:22;;;;;;;37.72;19.33;;;;;;;8.41;100.00;99966.16;4997806;28;20029;-67
2023/04/24 03:21:47;;;;;;;38.65;19.52;;;;;;;8.41;100.00;99961.84;4979904;28;20025;-67
2023/04/24 03:24:13;;;;;;;39.90;19.63;;;;;;;8.41;100.00;99959.25;4997383;28;20036;-67
2023/04/24 03:26:38;;;;;;;34.45;18.83;;;;;;;8.40;100.00;99964.41;4998045;28;20034;-67
2023/04/24 03:29:03;;;;;;;37.13;19.10;;;;;;;8.40;100.00;99959.22;4998473;28;20503;-67
2023/04/24 03:31:29;;;;;;;34.65;18.05;;;;;;;8.40;100.00;99961.81;4998384;28;20033;-67
2023/04/24 03:33:54;;;;;;;35.13;18.45;;;;;;;8.39;100.00;99960.94;4996736;28;20027;-67
2023/04/24 03:36:20;;;;;;;35.67;18.25;;;;;;;8.39;100.00;99958.34;4998319;28;20492;-67
2023/04/24 03:38:45;;;;;;;36.53;18.55;;;;;;;8.39;100.00;99954.91;4998446;28;20022;-67
2023/04/24 03:41:11;;;;;;;32.13;17.13;;;;;;;8.37;100.00;99960.03;4997674;28;20025;-67
2023/04/24 03:43:37;;;;;;;33.72;16.45;;;;;;;8.38;100.00;99961.78;4996428;28;20034;-67
2023/04/24 03:46:03;;;;;;;46.38;25.05;;;;;;;8.38;100.00;99955.72;4997908;28;20109;-67
2023/04/24 03:48:29;;;;;;;34.88;17.92;;;;;;;8.38;100.00;99961.78;4997394;28;20038;-67
2023/04/24 03:50:54;;;;;;;33.95;17.23;;;;;;;8.36;100.00;99959.16;4996615;28;20033;-67
2023/04/24 03:53:19;;;;;;;32.10;16.98;;;;;;;8.36;100.00;99961.75;4997385;28;20034;-67
2023/04/24 03:55:45;;;;;;;30.25;16.15;;;;;;;8.37;100.00;99952.25;4996991;28;20022;-67
2023/04/24 03:58:11;;;;;;;37.33;17.05;;;;;;;8.36;100.00;99951.38;4997826;28;20053;-67
2023/04/24 04:00:37;;;;;;;31.50;16.98;;;;;;;8.36;100.00;99953.97;4997585;28;20025;-67
2023/04/24 04:03:03;;;;;;;30.73;15.63;;;;;;;8.39;100.00;99952.31;4997351;28;20048;-67
2023/04/24 04:05:28;;;;;;;35.10;17.30;;;;;;;8.39;100.00;99955.75;4997422;28;20442;-67
2023/04/24 04:07:53;;;;;;;30.00;15.55;;;;;;;8.39;100.00;99952.31;4997515;28;20029;-67
2023/04/24 04:10:19;;;;;;;29.23;16.40;;;;;;;8.38;100.00;99954.00;4995079;28;20057;-67
2023/04/24 04:12:44;;;;;;;27.70;15.93;;;;;;;8.36;100.00;99953.13;4996556;28;20045;-67
2023/04/24 04:15:10;;;;;;;32.08;16.60;;;;;;;8.35;100.00;99956.53;4997106;28;20034;-67
2023/04/24 04:17:35;;;;;;;30.17;16.08;;;;;;;8.33;100.00;99956.53;4996979;28;20034;-67
2023/04/24 04:20:01;;;;;;;29.45;15.75;;;;;;;8.32;100.00;99962.53;4996099;28;20053;-67
2023/04/24 04:22:26;;;;;;;30.23;16.10;;;;;;;8.31;100.00;99970.31;4997339;28;20036;-67
2023/04/24 04:24:52;;;;;;;30.05;15.93;;;;;;;8.27;100.00;99968.50;4996963;28;20034;-67
2023/04/24 04:27:18;;;;;;;27.15;15.20;;;;;;;8.24;100.00;99964.16;4995204;28;20524;-67
2023/04/24 04:29:44;;;;;;;44.10;23.27;;;;;;;8.22;100.00;99965.81;4995911;28;20022;-67
2023/04/24 04:32:09;;;;;;;28.08;15.77;;;;;;;8.19;100.00;99966.63;4994311;28;20030;-67
2023/04/24 04:37:11;;;;;;;29.42;15.63;;;;;;;8.18;100.00;99971.78;5023296;23;20138;-96
2023/04/24 04:39:36;;;;;;;26.55;15.07;;;;;;;8.15;100.00;99963.94;5000955;28;20057;-96
2023/04/24 04:42:02;;;;;;;28.42;14.23;;;;;;;8.13;100.00;99960.47;4993464;28;20041;-96
2023/04/24 04:44:30;;;;;;;26.30;13.93;;;;;;;8.13;100.00;99968.25;4996736;28;20049;-96
2023/04/24 04:46:56;;;;;;;24.58;14.18;;;;;;;8.13;100.00;99966.53;5005549;28;20113;-96
2023/04/24 04:49:23;;;;;;;26.80;13.60;;;;;;;8.11;100.00;99972.53;5007388;28;20033;-96
2023/04/24 04:51:59;;;;;;;24.80;13.50;;;;;;;8.10;100.00;99976.84;5000991;28;20112;-96
2023/04/24 04:54:28;;;;;;;26.45;13.98;;;;;;;8.12;100.00;99979.47;5005754;28;20045;-96
2023/04/24 04:57:00;;;;;;;23.60;13.02;;;;;;;8.10;100.00;99984.63;4984587;28;20029;-96
2023/04/24 05:02:47;;;;;;;21.27;12.00;;;;;;;8.11;100.00;99986.38;4989327;23;20095;-70
2023/04/24 05:05:12;;;;;;;20.48;12.07;;;;;;;8.11;100.00;99988.97;4993371;28;20666;-70
2023/04/24 05:07:38;;;;;;;21.92;12.43;;;;;;;8.13;100.00;99987.28;4993298;28;20038;-70
2023/04/24 05:10:04;;;;;;;20.27;11.40;;;;;;;8.15;100.00;99989.91;4974177;28;20030;-70
2023/04/24 05:12:29;;;;;;;18.48;10.60;;;;;;;8.14;100.00;99986.44;4993614;28;20022;-70
2023/04/24 05:14:55;;;;;;;20.30;11.02;;;;;;;8.14;100.00;99983.84;4994565;28;20026;-70
2023/04/24 05:17:20;;;;;;;20.48;10.80;;;;;;;8.15;100.00;99985.59;4995271;28;20397;-70
2023/04/24 05:19:46;;;;;;;19.80;11.32;;;;;;;8.16;100.00;99992.53;4995181;28;20026;-70
2023/04/24 05:22:11;;;;;;;19.98;11.60;;;;;;;8.18;100.00;99992.56;4996185;28;20673;-71
2023/04/24 05:24:37;;;;;;;18.95;10.90;;;;;;;8.18;100.00;99987.34;4994964;28;20591;-71
2023/04/24 05:27:04;;;;;;;18.40;10.07;;;;;;;8.17;100.00;99989.09;4995752;28;20413;-68
2023/04/24 05:29:33;;;;;;;17.27;9.57;;;;;;;8.18;100.00;100000.34;4994971;28;20069;-65
2023/04/24 05:31:59;;;;;;;16.90;9.00;;;;;;;8.15;100.00;100011.56;4995757;28;20026;-66
2023/04/24 05:34:24;;;;;;;13.73;7.18;;;;;;;8.13;100.00;100012.38;4994177;28;20036;-65
2023/04/24 05:36:50;;;;;;;14.60;7.28;;;;;;;8.12;100.00;100005.41;4994314;28;20101;-65
2023/04/24 05:39:15;;;;;;;9.98;5.93;;;;;;;8.10;100.00;100007.97;4994056;28;20038;-65
2023/04/24 05:41:41;;;;;;;10.40;5.47;;;;;;;8.10;100.00;100013.16;4989181;28;20038;-65
2023/04/24 05:44:06;;;;;;;9.85;4.95;;;;;;;8.09;100.00;100014.00;4985178;28;20030;-66
2023/04/24 05:46:32;;;;;;;7.47;3.85;;;;;;;8.08;100.00;100019.16;5110744;23;21387;-71
2023/04/24 05:48:57;;;;;;;7.13;3.35;;;;;;;8.08;100.00;100030.44;5278622;23;20058;-77
2023/04/24 05:51:23;;;;;;;7.80;3.33;;;;;;;8.03;100.00;100032.06;4994260;28;20790;-77
2023/04/24 05:53:48;;;;;;;6.70;3.55;;;;;;;8.01;100.00;100033.75;4976358;28;20041;-77
2023/04/24 05:56:13;;;;;;;6.30;3.03;;;;;;;7.95;100.00;100044.88;4978708;28;20077;-77
2023/04/24 05:58:39;;;;;;;6.65;2.95;;;;;;;7.94;100.00;100040.50;4999477;28;20037;-79
2023/04/24 06:01:04;;;;;;;7.28;3.25;;;;;;;7.92;100.00;100044.81;4981114;28;20042;-78
2023/04/24 06:03:31;;;;;;;5.60;2.85;;;;;;;7.93;100.00;100050.88;4999620;28;21036;-78
2023/04/24 06:05:56;;;;;;;5.78;3.25;;;;;;;7.94;100.00;100058.69;4999183;28;20375;-78
2023/04/24 06:08:22;;;;;;;7.07;3.40;;;;;;;7.95;100.00;100064.72;4999959;28;20095;-79
2023/04/24 06:10:47;;;;;;;6.53;3.40;;;;;;;7.95;100.00;100068.22;5000045;28;20033;-79
2023/04/24 06:13:12;;;;;;;7.25;3.67;;;;;;;7.97;100.00;100068.25;4999755;28;20025;-80
2023/04/24 06:15:38;;;;;;;7.20;3.60;;;;;;;7.98;100.00;100077.75;4999577;28;20030;-81
2023/04/24 06:18:03;;;;;;;7.65;3.97;;;;;;;7.95;100.00;100078.59;5000453;28;20113;-81
2023/04/24 06:20:29;;;;;;;7.47;4.40;;;;;;;7.94;100.00;100083.75;4999059;28;20405;-80
2023/04/24 06:22:54;;;;;;;7.32;4.32;;;;;;;7.94;100.00;100089.81;4999688;28;20029;-81
2023/04/24 06:25:20;;;;;;;7.18;4.10;;;;;;;7.97;100.00;100096.78;4999352;28;20023;-82
2023/04/24 06:27:46;;;;;;;6.97;4.20;;;;;;;7.99;100.00;100100.28;4999517;28;20417;-81
2023/04/24 06:30:11;;;;;;;8.73;4.80;;;;;;;8.02;100.00;100108.13;4999387;28;20635;-82
2023/04/24 06:32:36;;;;;;;10.40;5.20;;;;;;;8.07;100.00;100116.91;4998888;28;20029;-82
2023/04/24 06:35:02;;;;;;;9.85;6.10;;;;;;;8.06;100.00;100120.31;4999411;28;20034;-82
2023/04/24 06:37:27;;;;;;;9.80;6.57;;;;;;;8.09;100.00;100135.09;4980942;28;20481;-72
2023/04/24 06:39:53;;;;;;;12.02;7.10;;;;;;;8.06;100.00;100122.91;4999587;28;20038;-71
2023/04/24 06:42:20;;;;;;;10.48;6.47;;;;;;;8.07;100.00;100136.78;4999333;28;20451;-72
2023/04/24 06:44:46;;;;;;;11.75;6.18;;;;;;;8.07;100.00;100140.25;4981622;28;20030;-72
2023/04/24 06:47:13;;;;;;;11.32;6.90;;;;;;;8.07;100.00;100149.75;4999035;28;20076;-71
2023/04/24 06:49:40;;;;;;;11.65;7.75;;;;;;;8.07;100.00;100152.34;4995605;28;20058;-71
2023/04/24 06:52:06;;;;;;;14.25;8.80;;;;;;;8.04;100.00;100153.16;4989698;28;20461;-71
2023/04/24 06:54:32;;;;;;;15.07;9.20;;;;;;;8.01;100.00;100166.06;4990033;28;20092;-71
2023/04/24 06:56:58;;;;;;;15.63;8.98;;;;;;;8.01;100.00;100168.66;4971758;28;20030;-71
2023/04/24 06:59:24;;;;;;;16.75;9.48;;;;;;;8.00;100.00;100182.47;4989837;28;20105;-71
2023/04/24 07:01:51;;;;;;;17.00;9.95;;;;;;;8.00;100.00;100188.50;4989488;28;20417;-71
2023/04/24 07:04:16;;;;;;;16.83;9.63;;;;;;;7.97;100.00;100200.56;4989657;28;20113;-71
2023/04/24 07:06:42;;;;;;;20.05;10.07;;;;;;;7.94;100.00;100216.03;4971536;28;20122;-73
2023/04/24 07:09:08;;;;;;;22.27;10.98;;;;;;;7.91;100.00;100215.97;4989335;28;20030;-71
2023/04/24 07:11:35;;;;;;;20.40;10.65;;;;;;;7.88;100.00;100226.25;4972206;28;20445;-71
2023/04/24 07:14:00;;;;;;;23.67;11.73;;;;;;;7.82;100.00;100235.66;4989483;28;20515;-71
2023/04/24 07:16:25;;;;;;;25.55;11.85;;;;;;;7.79;100.00;100251.13;4971700;28;20102;-71
2023/04/24 07:18:52;;;;;;;24.85;11.68;;;;;;;7.75;100.00;100246.72;4989561;28;20046;-73
2023/04/24 07:21:17;;;;;;;23.27;11.13;;;;;;;7.73;100.00;100253.56;4989615;28;20027;-71
2023/04/24 07:23:43;;;;;;;22.85;11.55;;;;;;;7.72;100.00;100271.66;4989242;28;20508;-71
2023/04/24 07:26:08;;;;;;;24.90;11.40;;;;;;;7.72;100.00;100279.44;4989106;28;20030;-71
2023/04/24 07:28:33;;;;;;;25.13;11.30;;;;;;;7.70;100.00;100279.41;4989230;28;20037;-71
2023/04/24 07:30:59;;;;;;;23.67;11.90;;;;;;;7.71;100.00;100288.94;4989209;28;20030;-71
2023/04/24 07:33:25;;;;;;;27.27;11.02;;;;;;;7.72;100.00;100300.19;4989295;28;20093;-71
2023/04/24 07:35:51;;;;;;;23.38;10.68;;;;;;;7.72;100.00;100307.97;4989565;28;20117;-71
2023/04/24 07:38:20;;;;;;;23.20;11.02;;;;;;;7.74;100.00;100308.91;4988755;28;20496;-71
2023/04/24 07:40:45;;;;;;;26.42;12.10;;;;;;;7.73;100.00;100318.38;4988907;28;20045;-71
2023/04/24 07:43:10;;;;;;;24.52;11.32;;;;;;;7.74;100.00;100325.34;4988737;28;20065;-71
2023/04/24 07:45:37;;;;;;;21.38;10.35;;;;;;;7.73;100.00;100323.56;4989270;28;20525;-71
2023/04/24 07:48:03;;;;;;;21.92;10.15;;;;;;;7.72;100.00;100345.19;4971560;28;20065;-71
2023/04/24 07:50:28;;;;;;;20.02;9.50;;;;;;;7.72;100.00;100344.28;4988564;28;20133;-71
2023/04/24 07:52:53;;;;;;;21.92;10.20;;;;;;;7.71;100.00;100351.19;4989048;28;20054;-72
2023/04/24 07:55:19;;;;;;;24.20;8.90;;;;;;;7.72;100.00;100358.13;4988929;28;20474;-71
2023/04/24 07:57:44;;;;;;;19.58;8.60;;;;;;;7.73;100.00;100365.06;4988849;28;20026;-71
2023/04/24 08:00:10;;;;;;;19.05;7.72;;;;;;;7.73;100.00;100365.06;4988609;28;20496;-71
2023/04/24 08:02:35;;;;;;;19.45;8.13;;;;;;;7.72;100.00;100380.59;4988657;28;20034;-71
2023/04/24 08:05:01;;;;;;;20.98;8.38;;;;;;;7.72;100.00;100378.88;4970628;28;20026;-71
2023/04/24 08:07:26;;;;;;;22.40;8.73;;;;;;;7.74;100.00;100387.56;4970776;28;20038;-71
2023/04/24 08:09:51;;;;;;;21.17;8.00;;;;;;;7.76;100.00;100398.88;4988686;28;20041;-71
2023/04/24 08:12:17;;;;;;;16.95;7.53;;;;;;;7.78;100.00;100394.59;4970664;28;20587;-71
2023/04/24 08:14:42;;;;;;;22.92;8.25;;;;;;;7.80;100.00;100403.28;4988203;28;20088;-71
2023/04/24 08:17:07;;;;;;;19.00;7.82;;;;;;;7.83;100.00;100407.69;4970527;28;20073;-71
2023/04/24 08:19:33;;;;;;;23.45;8.50;;;;;;;7.86;100.00;100404.31;4987301;28;20033;-71
2023/04/24 08:21:58;;;;;;;23.02;8.93;;;;;;;7.88;100.00;100416.50;4988314;28;20026;-71
2023/04/24 08:24:23;;;;;;;25.05;8.68;;;;;;;7.90;100.00;100412.22;4970363;28;20026;-71
2023/04/24 08:26:53;;;;;;;24.63;8.82;;;;;;;7.94;100.00;100426.16;4988192;28;20026;-71
2023/04/24 08:29:19;;;;;;;25.20;9.15;;;;;;;7.93;100.00;100427.00;4987778;28;20042;-71
2023/04/24 08:31:44;;;;;;;22.05;8.98;;;;;;;7.92;100.00;100433.00;4988021;28;20022;-72
2023/04/24 08:34:10;;;;;;;21.83;9.02;;;;;;;7.96;100.00;100445.22;4988126;28;20110;-71
2023/04/24 08:36:37;;;;;;;24.65;9.05;;;;;;;7.95;100.00;100452.16;4987951;28;20022;-71
2023/04/24 08:39:02;;;;;;;26.38;9.75;;;;;;;7.97;100.00;100455.66;4987514;28;20030;-71
2023/04/24 08:41:37;;;;;;;22.05;9.40;;;;;;;7.98;100.00;100459.13;5071204;27;1363196;-70
2023/04/24 08:44:03;;;;;;;24.80;9.35;;;;;;;8.00;100.00;100467.84;5094207;28;20073;-69
2023/04/24 08:46:30;;;;;;;20.83;8.88;;;;;;;8.00;100.00;100476.50;5094121;28;20039;-70
2023/04/24 08:48:56;;;;;;;22.58;8.23;;;;;;;8.02;100.00;100476.53;5091928;28;20027;-69
2023/04/24 08:51:22;;;;;;;20.38;8.70;;;;;;;8.06;100.00;100472.31;5072980;28;20024;-69
2023/04/24 08:53:48;;;;;;;22.83;8.80;;;;;;;8.14;100.00;100481.19;5073953;28;20052;-69
2023/04/24 08:56:13;;;;;;;18.65;6.57;;;;;;;8.18;100.00;100478.72;5074593;28;20771;-69
2023/04/24 08:58:39;;;;;;;18.20;5.80;;;;;;;8.28;100.00;100489.34;5074401;28;20035;-69
2023/04/24 09:01:05;;;;;;;16.13;5.63;;;;;;;8.35;100.00;100491.28;5074551;28;20671;-69
2023/04/24 09:03:32;;;;;;;17.98;5.72;;;;;;;8.38;100.00;100496.53;5073820;28;20075;-70
2023/04/24 09:05:58;;;;;;;15.88;5.80;;;;;;;8.33;100.00;100504.22;5074365;28;20033;-69
2023/04/24 09:08:25;;;;;;;19.42;5.65;;;;;;;8.29;100.00;100511.88;5073982;28;20130;-69
2023/04/24 09:10:51;;;;;;;20.65;5.70;;;;;;;8.25;100.00;100505.72;5074623;28;20197;-69
2023/04/24 09:13:18;;;;;;;16.30;5.15;;;;;;;8.17;100.00;100520.22;5073501;28;20499;-70
2023/04/24 09:15:43;;;;;;;18.48;5.53;;;;;;;8.11;100.00;100533.91;5073644;28;20488;-70
2023/04/24 09:18:09;;;;;;;15.13;5.03;;;;;;;8.09;100.00;100534.69;5073579;28;20067;-70
2023/04/24 09:20:37;;;;;;;17.75;5.20;;;;;;;8.08;100.00;100532.91;5073104;28;20032;-69
2023/04/24 09:23:03;;;;;;;16.13;4.85;;;;;;;8.09;100.00;100538.13;5073580;28;20028;-69
2023/04/24 09:25:35;;;;;;;16.17;4.80;;;;;;;8.16;100.00;100542.66;5073079;28;20031;-70
2023/04/24 09:28:06;;;;;;;17.83;5.47;;;;;;;8.28;100.00;100551.66;5073707;28;20032;-70
2023/04/24 09:30:32;;;;;;;21.70;6.68;;;;;;;8.44;100.00;100547.75;5074053;28;20453;-70
2023/04/24 09:33:15;;;;;;;18.83;5.82;;;;;;;8.52;100.00;100557.56;5073357;28;20027;-70
2023/04/24 09:35:51;;;;;;;20.50;6.78;;;;;;;8.50;100.00;100569.63;5071835;28;20046;-69
2023/04/24 09:38:17;;;;;;;13.32;5.70;;;;;;;8.44;100.00;100564.25;5073195;28;20033;-70
2023/04/24 09:40:42;;;;;;;17.27;5.80;;;;;;;8.42;100.00;100570.22;5073410;28;20110;-69
2023/04/24 09:43:10;;;;;;;17.48;5.35;;;;;;;8.38;100.00;100582.22;5073313;28;20016;-68
2023/04/24 09:45:38;;;;;;;20.25;5.43;;;;;;;8.32;100.00;100585.50;5073500;28;20035;-69
2023/04/24 09:48:04;;;;;;;15.68;5.78;;;;;;;8.27;100.00;100581.03;5072855;28;20028;-69
2023/04/24 09:50:34;;;;;;;10.77;3.60;;;;;;;8.25;98.34;100590.50;5073607;28;20025;-69
2023/04/24 09:53:02;;;;;;;10.30;4.43;;;;;;;8.30;100.00;100592.41;5058227;28;20039;-69
2023/04/24 09:55:28;;;;;;;14.63;4.18;;;;;;;8.40;100.00;100597.84;5059873;28;20525;-69
2023/04/24 09:58:00;;;;;;;15.32;4.38;;;;;;;8.48;98.62;100604.16;5060033;28;20028;-69
2023/04/24 10:00:30;;;;;;;13.18;4.20;;;;;;;8.57;99.40;100603.53;5059582;28;20064;-69
2023/04/24 10:03:00;;;;;;;12.77;3.50;;;;;;;8.57;93.91;100616.53;5059354;28;20042;-69
2023/04/24 10:05:34;;;;;;;11.77;3.47;;;;;;;8.63;98.92;100614.09;5059637;28;20049;-69
2023/04/24 10:08:07;;;;;;;11.30;3.08;;;;;;;8.76;96.09;100612.72;5059172;28;20391;-69
2023/04/24 10:10:36;;;;;;;9.70;3.63;;;;;;;9.00;99.23;100605.56;5059449;28;20595;-69
2023/04/24 10:13:03;;;;;;;10.88;3.33;;;;;;;9.27;100.00;100617.53;5059059;28;20443;-69
2023/04/24 10:15:29;;;;;;;10.20;3.80;;;;;;;9.33;95.48;100620.28;5059037;28;20488;-69
2023/04/24 10:17:58;;;;;;;12.00;3.78;;;;;;;9.31;93.00;100621.06;5058935;28;20029;-69
2023/04/24 10:20:25;;;;;;;9.18;3.20;;;;;;;9.25;91.37;100619.19;5057436;28;20020;-69
2023/04/24 10:22:53;;;;;;;9.77;3.20;;;;;;;9.16;91.77;100616.38;5059163;28;20427;-69
2023/04/24 10:25:20;;;;;;;8.25;2.50;;;;;;;9.09;92.46;100623.13;5057356;28;20025;-69
2023/04/24 10:27:47;;;;;;;8.63;2.83;;;;;;;9.02;92.12;100629.00;5058940;28;20488;-69
2023/04/24 10:30:13;;;;;;;7.18;2.75;;;;;;;8.95;89.55;100637.47;5059254;28;20178;-69
2023/04/24 10:32:39;;;;;;;6.32;1.80;;;;;;;8.87;88.05;100632.94;5059581;28;20025;-69
2023/04/24 10:35:07;;;;;;;5.75;1.70;;;;;;;8.84;91.85;100645.00;5058991;28;20027;-69
2023/04/24 10:37:42;;;;;;;7.40;2.10;;;;;;;8.83;93.10;100651.88;5058566;28;20153;-69
2023/04/24 10:40:10;;;;;;;6.35;1.90;;;;;;;8.81;92.10;100653.56;5058646;28;20270;-68
2023/04/24 10:42:42;;;;;;;7.43;1.85;;;;;;;8.82;93.27;100657.94;5058593;28;20614;-69
2023/04/24 10:45:16;;;;;;;7.68;2.30;;;;;;;8.81;88.31;100668.28;5058893;28;20015;-69
2023/04/24 10:47:42;;;;;;;7.32;1.80;;;;;;;8.80;88.92;100666.53;5059109;28;20025;-69
2023/04/24 10:50:10;;;;;;;5.53;2.13;;;;;;;8.80;89.23;100672.59;5059505;28;20468;-69
2023/04/24 10:52:46;;;;;;;5.10;1.90;;;;;;;8.81;89.91;100671.75;5058920;28;20016;-69
2023/04/24 10:55:13;;;;;;;4.45;2.05;;;;;;;8.81;89.03;100678.69;5058553;28;20028;-72
2023/04/24 10:57:38;;;;;;;4.82;1.58;;;;;;;8.77;88.04;100677.69;5056988;28;20158;-69
2023/04/24 11:00:18;;;;;;;7.55;2.05;;;;;;;8.76;89.73;100685.44;5058670;28;20613;-69
2023/04/24 11:02:48;;;;;;;5.60;1.65;;;;;;;8.73;87.67;100691.44;5057823;28;20037;-69
2023/04/24 11:05:15;;;;;;;5.90;1.75;;;;;;;8.72;88.25;100691.41;5058373;28;20056;-69
2023/04/24 11:08:16;;;;;;;6.97;1.70;;;;;;;8.73;89.43;100690.56;5058429;28;20051;-69
2023/04/24 11:10:46;;;;;;;7.53;2.10;;;;;;;8.73;90.19;100698.38;5056483;28;20044;-69
2023/04/24 11:13:21;;;;;;;5.93;2.10;;;;;;;8.73;92.52;100699.22;5058150;28;20499;-69
2023/04/24 11:16:25;;;;;;;7.20;2.00;;;;;;;8.74;91.46;100698.41;5058227;28;20032;-69
2023/04/24 11:18:59;;;;;;;7.07;2.15;;;;;;;8.72;93.33;100700.09;5058112;28;20579;-70
2023/04/24 11:21:24;;;;;;;5.45;1.95;;;;;;;8.68;92.53;100701.69;5058054;28;20115;-69